sensor_id;sensor_type;location;lat;lon;timestamp;pressure;altitude;pressure_sealevel;temperature;humidity
63287;BME280;49410;55.708;37.522;2023-01-25T00:01:46;100980.66;;;-0.36;nan
63287;BME280;49410;55.708;37.522;2023-01-25T00:04:11;100963.66;;;-0.37;nan
63287;BME280;49410;55.708;37.522;2023-01-25T00:06:37;100963.09;;;-0.24;nan
63287;BME280;49410;55.708;37.522;2023-01-25T00:09:03;100964.53;;;-0.36;nan
63287;BME280;49410;55.708;37.522;2023-01-25T00:11:29;100961.72;;;-0.33;nan
63287;BME280;49410;55.708;37.522;2023-01-25T00:13:55;100962.91;;;-0.40;nan
63287;BME280;49410;55.708;37.522;2023-01-25T00:16:22;100951.50;;;-0.45;nan
63287;BME280;49410;55.708;37.522;2023-01-25T00:18:48;100946.97;;;-0.45;nan
63287;BME280;49410;55.708;37.522;2023-01-25T00:21:19;100945.19;;;-0.44;nan
63287;BME280;49410;55.708;37.522;2023-01-25T00:23:45;100956.38;;;-0.35;nan
63287;BME280;49410;55.708;37.522;2023-01-25T00:26:10;100942.09;;;-0.35;nan
63287;BME280;49410;55.708;37.522;2023-01-25T00:28:36;100953.16;;;-0.22;nan
63287;BME280;49410;55.708;37.522;2023-01-25T00:31:03;100937.09;;;-0.24;nan
63287;BME280;49410;55.708;37.522;2023-01-25T00:33:33;100952.66;;;-0.11;nan
63287;BME280;49410;55.708;37.522;2023-01-25T00:39:02;100942.69;;;-0.28;nan
63287;BME280;49410;55.708;37.522;2023-01-25T00:41:28;100934.75;;;-0.32;nan
63287;BME280;49410;55.708;37.522;2023-01-25T00:43:54;100925.88;;;-0.34;nan
63287;BME280;49410;55.708;37.522;2023-01-25T00:46:19;100908.81;;;-0.33;nan
63287;BME280;49410;55.708;37.522;2023-01-25T00:48:45;100932.94;;;-0.12;nan
63287;BME280;49410;55.708;37.522;2023-01-25T00:51:10;100913.16;;;-0.30;nan
63287;BME280;49410;55.708;37.522;2023-01-25T00:53:36;100930.41;;;-0.15;nan
63287;BME280;49410;55.708;37.522;2023-01-25T00:56:02;100913.75;;;-0.23;nan
63287;BME280;49410;55.708;37.522;2023-01-25T00:58:28;100917.16;;;-0.20;nan
63287;BME280;49410;55.708;37.522;2023-01-25T01:00:54;100901.19;;;-0.23;nan
63287;BME280;49410;55.708;37.522;2023-01-25T01:03:20;100912.75;;;-0.21;nan
63287;BME280;49410;55.708;37.522;2023-01-25T01:05:45;100893.06;;;-0.21;nan
63287;BME280;49410;55.708;37.522;2023-01-25T01:08:13;100896.97;;;-0.28;nan
63287;BME280;49410;55.708;37.522;2023-01-25T01:10:39;100925.19;;;-0.18;nan
63287;BME280;49410;55.708;37.522;2023-01-25T01:13:05;100910.56;;;-0.32;nan
63287;BME280;49410;55.708;37.522;2023-01-25T01:15:30;100920.81;;;-0.21;nan
63287;BME280;49410;55.708;37.522;2023-01-25T01:17:56;100902.63;;;-0.35;nan
63287;BME280;49410;55.708;37.522;2023-01-25T01:20:21;100909.81;;;-0.35;nan
63287;BME280;49410;55.708;37.522;2023-01-25T01:22:47;100908.81;;;-0.33;nan
63287;BME280;49410;55.708;37.522;2023-01-25T01:25:16;100887.59;;;-0.39;nan
63287;BME280;49410;55.708;37.522;2023-01-25T01:27:41;100894.31;;;-0.49;nan
63287;BME280;49410;55.708;37.522;2023-01-25T01:30:07;100900.31;;;-0.42;nan
63287;BME280;49410;55.708;37.522;2023-01-25T01:32:33;100894.56;;;-0.35;nan
63287;BME280;49410;55.708;37.522;2023-01-25T01:34:58;100871.69;;;-0.43;nan
63287;BME280;49410;55.708;37.522;2023-01-25T01:37:24;100886.34;;;-0.32;nan
63287;BME280;49410;55.708;37.522;2023-01-25T01:39:50;100878.00;;;-0.25;nan
63287;BME280;49410;55.708;37.522;2023-01-25T01:42:16;100883.81;;;-0.16;nan
63287;BME280;49410;55.708;37.522;2023-01-25T01:44:45;100876.63;;;-0.15;nan
63287;BME280;49410;55.708;37.522;2023-01-25T01:47:27;100870.25;;;-0.12;nan
63287;BME280;49410;55.708;37.522;2023-01-25T01:49:57;100873.06;;;-0.16;nan
63287;BME280;49410;55.708;37.522;2023-01-25T01:52:31;100862.53;;;-0.20;nan
63287;BME280;49410;55.708;37.522;2023-01-25T01:55:07;100869.13;;;-0.08;nan
63287;BME280;49410;55.708;37.522;2023-01-25T02:00:26;100865.38;;;-0.04;nan
63287;BME280;49410;55.708;37.522;2023-01-25T02:02:53;100864.44;;;-0.03;nan
63287;BME280;49410;55.708;37.522;2023-01-25T02:08:01;100849.44;;;-0.09;nan
63287;BME280;49410;55.708;37.522;2023-01-25T02:10:29;100849.59;;;-0.12;nan
63287;BME280;49410;55.708;37.522;2023-01-25T02:12:55;100838.91;;;-0.13;nan
63287;BME280;49410;55.708;37.522;2023-01-25T02:15:22;100860.66;;;-0.18;nan
63287;BME280;49410;55.708;37.522;2023-01-25T02:17:48;100871.75;;;-0.26;nan
63287;BME280;49410;55.708;37.522;2023-01-25T02:20:28;100852.19;;;-0.49;nan
63287;BME280;49410;55.708;37.522;2023-01-25T02:23:17;100875.00;;;-0.38;nan
63287;BME280;49410;55.708;37.522;2023-01-25T02:25:45;100871.59;;;-0.42;nan
63287;BME280;49410;55.708;37.522;2023-01-25T02:28:18;100878.50;;;-0.36;nan
63287;BME280;49410;55.708;37.522;2023-01-25T02:30:45;100867.84;;;-0.38;nan
63287;BME280;49410;55.708;37.522;2023-01-25T02:33:11;100850.06;;;-0.61;nan
63287;BME280;49410;55.708;37.522;2023-01-25T02:35:43;100858.06;;;-0.40;nan
63287;BME280;49410;55.708;37.522;2023-01-25T02:38:13;100853.22;;;-0.51;nan
63287;BME280;49410;55.708;37.522;2023-01-25T02:40:45;100871.47;;;-0.39;nan
63287;BME280;49410;55.708;37.522;2023-01-25T02:43:16;100866.94;;;-0.38;nan
63287;BME280;49410;55.708;37.522;2023-01-25T02:45:45;100869.63;;;-0.38;nan
63287;BME280;49410;55.708;37.522;2023-01-25T02:48:12;100867.38;;;-0.48;nan
63287;BME280;49410;55.708;37.522;2023-01-25T02:50:37;100881.75;;;-0.49;nan
63287;BME280;49410;55.708;37.522;2023-01-25T02:53:03;100857.25;;;-0.61;nan
63287;BME280;49410;55.708;37.522;2023-01-25T02:55:28;100880.69;;;-0.44;nan
63287;BME280;49410;55.708;37.522;2023-01-25T02:57:54;100877.19;;;-0.47;nan
63287;BME280;49410;55.708;37.522;2023-01-25T03:00:19;100873.63;;;-0.47;nan
63287;BME280;49410;55.708;37.522;2023-01-25T03:02:45;100864.16;;;-0.56;nan
63287;BME280;49410;55.708;37.522;2023-01-25T03:05:11;100864.63;;;-0.46;nan
63287;BME280;49410;55.708;37.522;2023-01-25T03:07:37;100872.41;;;-0.40;nan
63287;BME280;49410;55.708;37.522;2023-01-25T03:10:02;100866.13;;;-0.40;nan
63287;BME280;49410;55.708;37.522;2023-01-25T03:12:28;100866.91;;;-0.37;nan
63287;BME280;49410;55.708;37.522;2023-01-25T03:14:53;100853.97;;;-0.28;nan
63287;BME280;49410;55.708;37.522;2023-01-25T03:17:19;100853.78;;;-0.25;nan
63287;BME280;49410;55.708;37.522;2023-01-25T03:19:44;100859.16;;;-0.25;nan
63287;BME280;49410;55.708;37.522;2023-01-25T03:22:10;100844.06;;;-0.28;nan
63287;BME280;49410;55.708;37.522;2023-01-25T03:24:35;100851.91;;;-0.23;nan
63287;BME280;49410;55.708;37.522;2023-01-25T03:27:01;100830.69;;;-0.29;nan
63287;BME280;49410;55.708;37.522;2023-01-25T03:29:36;100830.47;;;-0.25;nan
63287;BME280;49410;55.708;37.522;2023-01-25T03:32:02;100830.34;;;-0.22;nan
63287;BME280;49410;55.708;37.522;2023-01-25T03:34:28;100834.41;;;-0.13;nan
63287;BME280;49410;55.708;37.522;2023-01-25T03:36:54;100845.81;;;-0.08;nan
63287;BME280;49410;55.708;37.522;2023-01-25T03:39:19;100832.88;;;-0.19;nan
63287;BME280;49410;55.708;37.522;2023-01-25T03:41:45;100841.81;;;-0.18;nan
63287;BME280;49410;55.708;37.522;2023-01-25T03:44:10;100825.75;;;-0.20;nan
63287;BME280;49410;55.708;37.522;2023-01-25T03:46:37;100827.72;;;-0.23;nan
63287;BME280;49410;55.708;37.522;2023-01-25T03:49:03;100837.09;;;-0.13;nan
63287;BME280;49410;55.708;37.522;2023-01-25T03:51:28;100848.06;;;-0.18;nan
63287;BME280;49410;55.708;37.522;2023-01-25T03:53:54;100844.19;;;-0.50;nan
63287;BME280;49410;55.708;37.522;2023-01-25T03:56:19;100850.00;;;-0.40;nan
63287;BME280;49410;55.708;37.522;2023-01-25T03:58:45;100842.25;;;-0.47;nan
63287;BME280;49410;55.708;37.522;2023-01-25T04:01:11;100848.44;;;-0.44;nan
63287;BME280;49410;55.708;37.522;2023-01-25T04:03:37;100851.97;;;-0.44;nan
63287;BME280;49410;55.708;37.522;2023-01-25T04:06:03;100854.38;;;-0.38;nan
63287;BME280;49410;55.708;37.522;2023-01-25T04:08:29;100847.69;;;-0.29;nan
63287;BME280;49410;55.708;37.522;2023-01-25T04:10:59;100840.88;;;-0.36;nan
63287;BME280;49410;55.708;37.522;2023-01-25T04:13:25;100841.16;;;-0.42;nan
63287;BME280;49410;55.708;37.522;2023-01-25T04:15:51;100856.69;;;-0.30;nan
63287;BME280;49410;55.708;37.522;2023-01-25T04:18:17;100842.63;;;-0.35;nan
63287;BME280;49410;55.708;37.522;2023-01-25T04:20:43;100837.88;;;-0.49;nan
63287;BME280;49410;55.708;37.522;2023-01-25T04:23:09;100831.91;;;-0.56;nan
63287;BME280;49410;55.708;37.522;2023-01-25T04:25:35;100841.44;;;-0.49;nan
63287;BME280;49410;55.708;37.522;2023-01-25T04:28:01;100841.16;;;-0.42;nan
63287;BME280;49410;55.708;37.522;2023-01-25T04:30:27;100840.34;;;-0.44;nan
63287;BME280;49410;55.708;37.522;2023-01-25T04:32:52;100822.84;;;-0.53;nan
63287;BME280;49410;55.708;37.522;2023-01-25T04:35:18;100850.91;;;-0.40;nan
63287;BME280;49410;55.708;37.522;2023-01-25T04:37:57;100853.38;;;-0.35;nan
63287;BME280;49410;55.708;37.522;2023-01-25T04:40:24;100839.34;;;-0.42;nan
63287;BME280;49410;55.708;37.522;2023-01-25T04:42:49;100846.53;;;-0.42;nan
63287;BME280;49410;55.708;37.522;2023-01-25T04:45:15;100858.38;;;-0.47;nan
63287;BME280;49410;55.708;37.522;2023-01-25T04:47:40;100853.41;;;-0.56;nan
63287;BME280;49410;55.708;37.522;2023-01-25T04:50:06;100863.56;;;-0.63;nan
63287;BME280;49410;55.708;37.522;2023-01-25T04:52:32;100851.66;;;-0.57;nan
63287;BME280;49410;55.708;37.522;2023-01-25T04:54:57;100859.41;;;-0.70;nan
63287;BME280;49410;55.708;37.522;2023-01-25T04:57:23;100849.91;;;-0.77;nan
63287;BME280;49410;55.708;37.522;2023-01-25T04:59:48;100860.66;;;-0.77;nan
63287;BME280;49410;55.708;37.522;2023-01-25T05:02:14;100847.06;;;-0.74;nan
63287;BME280;49410;55.708;37.522;2023-01-25T05:04:39;100847.22;;;-0.77;nan
63287;BME280;49410;55.708;37.522;2023-01-25T05:07:05;100858.19;;;-0.63;nan
63287;BME280;49410;55.708;37.522;2023-01-25T05:09:30;100848.16;;;-0.78;nan
63287;BME280;49410;55.708;37.522;2023-01-25T05:11:56;100847.94;;;-0.73;nan
63287;BME280;49410;55.708;37.522;2023-01-25T05:14:21;100846.47;;;-0.81;nan
63287;BME280;49410;55.708;37.522;2023-01-25T05:16:47;100850.56;;;-0.72;nan
63287;BME280;49410;55.708;37.522;2023-01-25T05:19:12;100849.63;;;-0.71;nan
63287;BME280;49410;55.708;37.522;2023-01-25T05:21:38;100858.34;;;-0.86;nan
63287;BME280;49410;55.708;37.522;2023-01-25T05:24:29;100852.31;;;-0.91;nan
63287;BME280;49410;55.708;37.522;2023-01-25T05:26:55;100850.38;;;-0.88;nan
63287;BME280;49410;55.708;37.522;2023-01-25T05:29:33;100854.00;;;-0.89;nan
63287;BME280;49410;55.708;37.522;2023-01-25T05:32:06;100858.09;;;-1.01;nan
63287;BME280;49410;55.708;37.522;2023-01-25T05:34:32;100857.78;;;-0.93;nan
63287;BME280;49410;55.708;37.522;2023-01-25T05:36:58;100820.59;;;-1.23;nan
63287;BME280;49410;55.708;37.522;2023-01-25T05:39:24;100847.66;;;-1.07;nan
63287;BME280;49410;55.708;37.522;2023-01-25T05:41:50;100862.88;;;-1.07;nan
63287;BME280;49410;55.708;37.522;2023-01-25T05:44:16;100861.72;;;-1.02;nan
63287;BME280;49410;55.708;37.522;2023-01-25T05:46:42;100855.22;;;-0.96;nan
63287;BME280;49410;55.708;37.522;2023-01-25T05:49:08;100835.00;;;-1.05;nan
63287;BME280;49410;55.708;37.522;2023-01-25T05:51:34;100814.59;;;-1.09;nan
63287;BME280;49410;55.708;37.522;2023-01-25T05:54:06;100839.50;;;-0.85;nan
63287;BME280;49410;55.708;37.522;2023-01-25T05:56:32;100847.56;;;-0.85;nan
63287;BME280;49410;55.708;37.522;2023-01-25T05:58:59;100849.31;;;-0.84;nan
63287;BME280;49410;55.708;37.522;2023-01-25T06:01:25;100822.03;;;-0.95;nan
63287;BME280;49410;55.708;37.522;2023-01-25T06:03:52;100839.38;;;-0.82;nan
63287;BME280;49410;55.708;37.522;2023-01-25T06:06:18;100850.13;;;-0.82;nan
63287;BME280;49410;55.708;37.522;2023-01-25T06:08:45;100829.63;;;-1.05;nan
63287;BME280;49410;55.708;37.522;2023-01-25T06:11:15;100848.56;;;-0.87;nan
63287;BME280;49410;55.708;37.522;2023-01-25T06:13:41;100838.41;;;-1.01;nan
63287;BME280;49410;55.708;37.522;2023-01-25T06:16:07;100842.31;;;-0.88;nan
63287;BME280;49410;55.708;37.522;2023-01-25T06:18:34;100852.59;;;-0.77;nan
63287;BME280;49410;55.708;37.522;2023-01-25T06:21:00;100853.84;;;-0.65;nan
63287;BME280;49410;55.708;37.522;2023-01-25T06:23:26;100822.06;;;-0.76;nan
63287;BME280;49410;55.708;37.522;2023-01-25T06:25:57;100848.19;;;-0.59;nan
63287;BME280;49410;55.708;37.522;2023-01-25T06:28:22;100855.09;;;-0.53;nan
63287;BME280;49410;55.708;37.522;2023-01-25T06:30:48;100843.53;;;-0.55;nan
63287;BME280;49410;55.708;37.522;2023-01-25T06:33:13;100833.44;;;-0.50;nan
63287;BME280;49410;55.708;37.522;2023-01-25T06:35:39;100812.72;;;-0.67;nan
63287;BME280;49410;55.708;37.522;2023-01-25T06:38:05;100837.81;;;-0.48;nan
63287;BME280;49410;55.708;37.522;2023-01-25T06:40:30;100848.00;;;-0.35;nan
63287;BME280;49410;55.708;37.522;2023-01-25T06:43:07;100853.59;;;-0.40;nan
63287;BME280;49410;55.708;37.522;2023-01-25T06:45:33;100822.09;;;-0.57;nan
63287;BME280;49410;55.708;37.522;2023-01-25T06:47:59;100848.94;;;-0.36;nan
63287;BME280;49410;55.708;37.522;2023-01-25T06:50:24;100842.09;;;-0.43;nan
63287;BME280;49410;55.708;37.522;2023-01-25T06:52:54;100841.84;;;-0.58;nan
63287;BME280;49410;55.708;37.522;2023-01-25T06:55:19;100859.03;;;-0.41;nan
63287;BME280;49410;55.708;37.522;2023-01-25T06:57:45;100868.81;;;-0.40;nan
63287;BME280;49410;55.708;37.522;2023-01-25T07:00:11;100868.97;;;-0.43;nan
63287;BME280;49410;55.708;37.522;2023-01-25T07:02:37;100862.16;;;-0.32;nan
63287;BME280;49410;55.708;37.522;2023-01-25T07:05:03;100843.53;;;-0.55;nan
63287;BME280;49410;55.708;37.522;2023-01-25T07:07:28;100861.88;;;-0.44;nan
63287;BME280;49410;55.708;37.522;2023-01-25T07:09:54;100861.81;;;-0.64;nan
63287;BME280;49410;55.708;37.522;2023-01-25T07:12:20;100861.16;;;-0.69;nan
63287;BME280;49410;55.708;37.522;2023-01-25T07:14:46;100842.38;;;-0.69;nan
63287;BME280;49410;55.708;37.522;2023-01-25T07:17:14;100844.25;;;-0.71;nan
63287;BME280;49410;55.708;37.522;2023-01-25T07:19:39;100854.44;;;-0.58;nan
63287;BME280;49410;55.708;37.522;2023-01-25T07:22:05;100845.78;;;-0.65;nan
63287;BME280;49410;55.708;37.522;2023-01-25T07:24:30;100845.28;;;-0.54;nan
63287;BME280;49410;55.708;37.522;2023-01-25T07:26:56;100844.84;;;-0.45;nan
63287;BME280;49410;55.708;37.522;2023-01-25T07:29:21;100848.50;;;-0.46;nan
63287;BME280;49410;55.708;37.522;2023-01-25T07:31:47;100833.16;;;-0.44;nan
63287;BME280;49410;55.708;37.522;2023-01-25T07:34:12;100829.00;;;-0.51;nan
63287;BME280;49410;55.708;37.522;2023-01-25T07:36:39;100828.50;;;-0.40;nan
63287;BME280;49410;55.708;37.522;2023-01-25T07:39:05;100835.41;;;-0.35;nan
63287;BME280;49410;55.708;37.522;2023-01-25T07:41:33;100846.63;;;-0.25;nan
63287;BME280;49410;55.708;37.522;2023-01-25T07:43:59;100832.72;;;-0.35;nan
63287;BME280;49410;55.708;37.522;2023-01-25T07:46:24;100854.31;;;-0.36;nan
63287;BME280;49410;55.708;37.522;2023-01-25T07:48:51;100844.22;;;-0.31;nan
63287;BME280;49410;55.708;37.522;2023-01-25T07:51:19;100835.19;;;-0.30;nan
63287;BME280;49410;55.708;37.522;2023-01-25T07:53:53;100851.63;;;-0.17;nan
63287;BME280;49410;55.708;37.522;2023-01-25T07:56:20;100839.94;;;-0.16;nan
63287;BME280;49410;55.708;37.522;2023-01-25T07:58:46;100832.38;;;-0.08;nan
63287;BME280;49410;55.708;37.522;2023-01-25T08:01:15;100836.22;;;-0.13;nan
63287;BME280;49410;55.708;37.522;2023-01-25T08:03:40;100824.75;;;-0.17;nan
63287;BME280;49410;55.708;37.522;2023-01-25T08:06:06;100832.41;;;-0.09;nan
63287;BME280;49410;55.708;37.522;2023-01-25T08:08:34;100826.09;;;-0.08;nan
63287;BME280;49410;55.708;37.522;2023-01-25T08:11:06;100828.66;;;-0.05;nan
63287;BME280;49410;55.708;37.522;2023-01-25T08:13:32;100837.09;;;-0.13;nan
63287;BME280;49410;55.708;37.522;2023-01-25T08:15:58;100829.00;;;-0.13;nan
63287;BME280;49410;55.708;37.522;2023-01-25T08:18:23;100835.28;;;-0.12;nan
63287;BME280;49410;55.708;37.522;2023-01-25T08:20:50;100826.41;;;-0.14;nan
63287;BME280;49410;55.708;37.522;2023-01-25T08:23:15;100840.28;;;-0.05;nan
63287;BME280;49410;55.708;37.522;2023-01-25T08:25:41;100832.41;;;-0.09;nan
63287;BME280;49410;55.708;37.522;2023-01-25T08:28:07;100838.03;;;-0.14;nan
63287;BME280;49410;55.708;37.522;2023-01-25T08:30:32;100830.84;;;-0.13;nan
63287;BME280;49410;55.708;37.522;2023-01-25T08:32:58;100835.34;;;-0.14;nan
63287;BME280;49410;55.708;37.522;2023-01-25T08:35:24;100833.66;;;-0.17;nan
63287;BME280;49410;55.708;37.522;2023-01-25T08:37:49;100816.09;;;-0.24;nan
63287;BME280;49410;55.708;37.522;2023-01-25T08:40:15;100814.44;;;-0.26;nan
63287;BME280;49410;55.708;37.522;2023-01-25T08:42:40;100830.63;;;-0.09;nan
63287;BME280;49410;55.708;37.522;2023-01-25T08:45:08;100807.72;;;-0.18;nan
63287;BME280;49410;55.708;37.522;2023-01-25T08:47:34;100803.16;;;-0.16;nan
63287;BME280;49410;55.708;37.522;2023-01-25T08:49:59;100803.16;;;-0.16;nan
63287;BME280;49410;55.708;37.522;2023-01-25T08:52:25;100776.63;;;-0.23;nan
63287;BME280;49410;55.708;37.522;2023-01-25T08:54:50;100797.69;;;-0.14;nan
63287;BME280;49410;55.708;37.522;2023-01-25T08:57:16;100794.50;;;-0.03;nan
63287;BME280;49410;55.708;37.522;2023-01-25T08:59:42;100793.56;;;-0.02;nan
63287;BME280;49410;55.708;37.522;2023-01-25T09:02:10;100796.16;;;-0.01;nan
63287;BME280;49410;55.708;37.522;2023-01-25T09:04:36;100795.13;;;0.02;nan
63287;BME280;49410;55.708;37.522;2023-01-25T09:07:02;100776.84;;;-0.09;nan
63287;BME280;49410;55.708;37.522;2023-01-25T09:09:27;100770.31;;;-0.22;nan
63287;BME280;49410;55.708;37.522;2023-01-25T09:11:54;100770.44;;;-0.06;nan
63287;BME280;49410;55.708;37.522;2023-01-25T09:14:20;100773.19;;;-0.08;nan
63287;BME280;49410;55.708;37.522;2023-01-25T09:16:46;100769.84;;;-0.13;nan
63287;BME280;49410;55.708;37.522;2023-01-25T09:19:12;100783.31;;;-0.13;nan
63287;BME280;49410;55.708;37.522;2023-01-25T09:21:37;100762.72;;;-0.14;nan
63287;BME280;49410;55.708;37.522;2023-01-25T09:24:03;100765.19;;;-0.09;nan
63287;BME280;49410;55.708;37.522;2023-01-25T09:26:29;100748.91;;;-0.06;nan
63287;BME280;49410;55.708;37.522;2023-01-25T09:28:54;100756.84;;;-0.03;nan
63287;BME280;49410;55.708;37.522;2023-01-25T09:31:20;100764.38;;;0.08;nan
63287;BME280;49410;55.708;37.522;2023-01-25T09:33:47;100743.88;;;0.05;nan
63287;BME280;49410;55.708;37.522;2023-01-25T09:36:14;100754.88;;;0.01;nan
63287;BME280;49410;55.708;37.522;2023-01-25T09:38:39;100711.50;;;-0.11;nan
63287;BME280;49410;55.708;37.522;2023-01-25T09:46:25;100733.72;;;0.10;nan
63287;BME280;49410;55.708;37.522;2023-01-25T09:52:06;100723.78;;;0.12;nan
63287;BME280;49410;55.708;37.522;2023-01-25T09:54:38;100713.97;;;0.11;nan
63287;BME280;49410;55.708;37.522;2023-01-25T09:57:25;100697.06;;;0.09;nan
63287;BME280;49410;55.708;37.522;2023-01-25T09:59:52;100694.88;;;0.16;nan
63287;BME280;49410;55.708;37.522;2023-01-25T10:02:37;100703.16;;;0.13;nan
63287;BME280;49410;55.708;37.522;2023-01-25T10:05:19;100695.59;;;0.02;nan
63287;BME280;49410;55.708;37.522;2023-01-25T10:10:25;100690.06;;;-0.12;nan
63287;BME280;49410;55.708;37.522;2023-01-25T10:12:54;100703.53;;;0.05;nan
63287;BME280;49410;55.708;37.522;2023-01-25T10:15:21;100685.78;;;0.01;nan
63287;BME280;49410;55.708;37.522;2023-01-25T10:20:53;100687.16;;;0.10;nan
63287;BME280;49410;55.708;37.522;2023-01-25T10:23:59;100692.69;;;0.07;nan
63287;BME280;49410;55.708;37.522;2023-01-25T10:29:43;100692.44;;;-0.06;nan
63287;BME280;49410;55.708;37.522;2023-01-25T10:32:26;100699.69;;;-0.08;nan
63287;BME280;49410;55.708;37.522;2023-01-25T10:34:54;100676.66;;;-0.32;nan
63287;BME280;49410;55.708;37.522;2023-01-25T10:37:25;100681.94;;;-0.30;nan
63287;BME280;49410;55.708;37.522;2023-01-25T10:43:02;100683.00;;;-0.15;nan
63287;BME280;49410;55.708;37.522;2023-01-25T10:45:30;100688.31;;;-0.13;nan
63287;BME280;49410;55.708;37.522;2023-01-25T10:48:05;100677.56;;;-0.13;nan
63287;BME280;49410;55.708;37.522;2023-01-25T10:53:26;100646.22;;;-0.32;nan
63287;BME280;49410;55.708;37.522;2023-01-25T10:56:02;100667.41;;;-0.26;nan
63287;BME280;49410;55.708;37.522;2023-01-25T10:58:34;100645.66;;;-0.39;nan
63287;BME280;49410;55.708;37.522;2023-01-25T11:01:00;100666.16;;;-0.19;nan
63287;BME280;49410;55.708;37.522;2023-01-25T11:03:37;100649.22;;;-0.38;nan
63287;BME280;49410;55.708;37.522;2023-01-25T11:06:04;100646.06;;;-0.29;nan
63287;BME280;49410;55.708;37.522;2023-01-25T11:10:57;100632.63;;;-0.29;nan
63287;BME280;49410;55.708;37.522;2023-01-25T11:13:28;100648.38;;;-0.21;nan
63287;BME280;49410;55.708;37.522;2023-01-25T11:18:28;100640.06;;;-0.17;nan
63287;BME280;49410;55.708;37.522;2023-01-25T11:21:22;100642.22;;;-0.06;nan
63287;BME280;49410;55.708;37.522;2023-01-25T11:26:38;100629.88;;;-0.10;nan
63287;BME280;49410;55.708;37.522;2023-01-25T11:29:15;100631.72;;;-0.10;nan
63287;BME280;49410;55.708;37.522;2023-01-25T11:31:43;100623.69;;;-0.12;nan
63287;BME280;49410;55.708;37.522;2023-01-25T11:34:23;100620.78;;;-0.07;nan
63287;BME280;49410;55.708;37.522;2023-01-25T11:40:12;100614.81;;;-0.14;nan
63287;BME280;49410;55.708;37.522;2023-01-25T11:51:13;100612.56;;;-0.04;nan
63287;BME280;49410;55.708;37.522;2023-01-25T11:56:18;100609.78;;;-0.03;nan
63287;BME280;49410;55.708;37.522;2023-01-25T12:01:54;100605.44;;;-0.05;nan
63287;BME280;49410;55.708;37.522;2023-01-25T12:13:02;100605.34;;;0.14;nan
63287;BME280;49410;55.708;37.522;2023-01-25T12:18:16;100602.47;;;0.17;nan
63287;BME280;49410;55.708;37.522;2023-01-25T12:26:28;100595.47;;;-0.03;nan
63287;BME280;49410;55.708;37.522;2023-01-25T12:32:04;100608.91;;;-0.03;nan
63287;BME280;49410;55.708;37.522;2023-01-25T12:37:04;100593.47;;;0.01;nan
63287;BME280;49410;55.708;37.522;2023-01-25T12:39:40;100594.91;;;-0.10;nan
63287;BME280;49410;55.708;37.522;2023-01-25T12:42:17;100599.66;;;0.03;nan
63287;BME280;49410;55.708;37.522;2023-01-25T12:44:51;100578.44;;;-0.04;nan
63287;BME280;49410;55.708;37.522;2023-01-25T12:47:24;100576.41;;;0.02;nan
63287;BME280;49410;55.708;37.522;2023-01-25T12:49:59;100570.63;;;-0.08;nan
63287;BME280;49410;55.708;37.522;2023-01-25T12:52:35;100568.19;;;0.05;nan
63287;BME280;49410;55.708;37.522;2023-01-25T12:55:04;100562.00;;;0.03;nan
63287;BME280;49410;55.708;37.522;2023-01-25T12:57:41;100553.03;;;0.02;nan
63287;BME280;49410;55.708;37.522;2023-01-25T13:08:57;100565.50;;;0.05;nan
63287;BME280;49410;55.708;37.522;2023-01-25T13:11:35;100563.50;;;0.08;nan
63287;BME280;49410;55.708;37.522;2023-01-25T13:16:49;100551.69;;;0.11;nan
63287;BME280;49410;55.708;37.522;2023-01-25T13:21:46;100547.38;;;0.08;nan
63287;BME280;49410;55.708;37.522;2023-01-25T13:32:02;100546.47;;;0.08;nan
63287;BME280;49410;55.708;37.522;2023-01-25T13:37:29;100507.75;;;-0.06;nan
63287;BME280;49410;55.708;37.522;2023-01-25T13:40:03;100512.41;;;-0.09;nan
63287;BME280;49410;55.708;37.522;2023-01-25T13:42:33;100514.09;;;-0.07;nan
63287;BME280;49410;55.708;37.522;2023-01-25T13:45:20;100507.75;;;-0.23;nan
63287;BME280;49410;55.708;37.522;2023-01-25T13:48:12;100504.75;;;-0.35;nan
63287;BME280;49410;55.708;37.522;2023-01-25T13:50:47;100459.19;;;-0.54;nan
63287;BME280;49410;55.708;37.522;2023-01-25T13:55:43;100486.34;;;-0.25;nan
63287;BME280;49410;55.708;37.522;2023-01-25T14:03:13;100470.06;;;-0.39;nan
63287;BME280;49410;55.708;37.522;2023-01-25T14:05:39;100471.00;;;-0.40;nan
63287;BME280;49410;55.708;37.522;2023-01-25T14:08:04;100467.00;;;-0.49;nan
63287;BME280;49410;55.708;37.522;2023-01-25T14:10:30;100453.88;;;-0.55;nan
63287;BME280;49410;55.708;37.522;2023-01-25T14:12:59;100423.06;;;-0.66;nan
63287;BME280;49410;55.708;37.522;2023-01-25T14:15:27;100447.25;;;-0.48;nan
63287;BME280;49410;55.708;37.522;2023-01-25T14:18:10;100449.31;;;-0.71;nan
63287;BME280;49410;55.708;37.522;2023-01-25T14:20:40;100464.72;;;-0.57;nan
63287;BME280;49410;55.708;37.522;2023-01-25T14:23:22;100463.28;;;-0.47;nan
63287;BME280;49410;55.708;37.522;2023-01-25T14:25:49;100457.91;;;-0.47;nan
63287;BME280;49410;55.708;37.522;2023-01-25T14:28:15;100462.41;;;-0.65;nan
63287;BME280;49410;55.708;37.522;2023-01-25T14:30:41;100467.25;;;-0.54;nan
63287;BME280;49410;55.708;37.522;2023-01-25T14:33:20;100463.63;;;-0.53;nan
63287;BME280;49410;55.708;37.522;2023-01-25T14:35:48;100467.63;;;-0.44;nan
63287;BME280;49410;55.708;37.522;2023-01-25T14:40:54;100462.25;;;-0.61;nan
63287;BME280;49410;55.708;37.522;2023-01-25T14:43:21;100458.41;;;-0.56;nan
63287;BME280;49410;55.708;37.522;2023-01-25T14:45:47;100469.22;;;-0.57;nan
63287;BME280;49410;55.708;37.522;2023-01-25T14:48:41;100462.72;;;-0.53;nan
63287;BME280;49410;55.708;37.522;2023-01-25T14:51:11;100473.88;;;-0.61;nan
63287;BME280;49410;55.708;37.522;2023-01-25T14:53:39;100463.91;;;-0.59;nan
63287;BME280;49410;55.708;37.522;2023-01-25T14:56:25;100446.16;;;-0.61;nan
63287;BME280;49410;55.708;37.522;2023-01-25T14:58:53;100416.53;;;-0.77;nan
63287;BME280;49410;55.708;37.522;2023-01-25T15:01:30;100465.91;;;-0.63;nan